Ocontofalls, Wisconsin
Current Conditions -  °F | °C
As of 10:35 AM on Sunday 21 Dec 2014 (Local Time) from KOCQ Reporting Station
Overcast Overcast  
Wind Chill: -3°   Ceiling: 1200
Heat Index:   Visibility: 5mi
Dew Point: -1°   Wind: 6mph
Humidity: 93%   Direction: 180°S
Pressure: 30.11"   Gusts: NA
Location:  44.8816°N, 88.1735°W
Report Text: KOCQ 211635Z AUTO 18005KT 5SM OVC012 00/M01 A3011 RMK AO1 T00001010
Loading
Personal Weather Stations






























Interactive Weather Map New forecast layout! Learn more

10-Day Weather Forecast

Advertisements
Track Severe Weather on mobile